sensor_id;sensor_type;location;lat;lon;timestamp;P1;durP1;ratioP1;P2;durP2;ratioP2
9496;SDS011;4786;51.270;4.456;2023-04-04T17:13:40;5.40;;;3.87;;
9496;SDS011;4786;51.270;4.456;2023-04-04T17:16:07;5.10;;;3.80;;
9496;SDS011;4786;51.270;4.456;2023-04-04T17:18:33;6.83;;;3.93;;
9496;SDS011;4786;51.270;4.456;2023-04-04T17:20:59;5.03;;;3.93;;
9496;SDS011;4786;51.270;4.456;2023-04-04T17:23:25;5.23;;;4.03;;
9496;SDS011;4786;51.270;4.456;2023-04-04T17:25:51;5.93;;;4.37;;
9496;SDS011;4786;51.270;4.456;2023-04-04T17:28:17;5.20;;;3.97;;
9496;SDS011;4786;51.270;4.456;2023-04-04T17:30:43;5.07;;;4.27;;
9496;SDS011;4786;51.270;4.456;2023-04-04T17:33:10;5.13;;;4.30;;
9496;SDS011;4786;51.270;4.456;2023-04-04T17:35:36;6.07;;;4.40;;
9496;SDS011;4786;51.270;4.456;2023-04-04T17:38:02;8.83;;;5.00;;
9496;SDS011;4786;51.270;4.456;2023-04-04T17:40:28;10.10;;;4.57;;
9496;SDS011;4786;51.270;4.456;2023-04-04T17:42:54;5.67;;;4.53;;
9496;SDS011;4786;51.270;4.456;2023-04-04T17:45:20;6.13;;;4.20;;
9496;SDS011;4786;51.270;4.456;2023-04-04T17:47:47;6.80;;;4.43;;
9496;SDS011;4786;51.270;4.456;2023-04-04T17:50:13;5.90;;;4.33;;
9496;SDS011;4786;51.270;4.456;2023-04-04T17:52:40;6.23;;;4.20;;
9496;SDS011;4786;51.270;4.456;2023-04-04T17:55:06;6.27;;;4.43;;
9496;SDS011;4786;51.270;4.456;2023-04-04T17:57:32;6.50;;;4.77;;
9496;SDS011;4786;51.270;4.456;2023-04-04T17:59:59;6.53;;;4.80;;
9496;SDS011;4786;51.270;4.456;2023-04-04T18:02:25;6.47;;;4.27;;
9496;SDS011;4786;51.270;4.456;2023-04-04T18:04:51;6.87;;;4.70;;
9496;SDS011;4786;51.270;4.456;2023-04-04T18:07:16;5.87;;;4.20;;
9496;SDS011;4786;51.270;4.456;2023-04-04T18:09:43;7.63;;;4.40;;
9496;SDS011;4786;51.270;4.456;2023-04-04T18:12:10;8.70;;;4.80;;
9496;SDS011;4786;51.270;4.456;2023-04-04T18:14:36;6.93;;;4.40;;
9496;SDS011;4786;51.270;4.456;2023-04-04T18:17:03;4.60;;;3.90;;
9496;SDS011;4786;51.270;4.456;2023-04-04T18:19:28;4.90;;;3.90;;
9496;SDS011;4786;51.270;4.456;2023-04-04T18:21:55;6.73;;;4.57;;
9496;SDS011;4786;51.270;4.456;2023-04-04T18:24:24;6.50;;;4.40;;
9496;SDS011;4786;51.270;4.456;2023-04-04T18:26:51;5.40;;;4.17;;
9496;SDS011;4786;51.270;4.456;2023-04-04T18:29:17;8.57;;;4.10;;
9496;SDS011;4786;51.270;4.456;2023-04-04T18:31:43;4.70;;;4.00;;
9496;SDS011;4786;51.270;4.456;2023-04-04T18:34:09;6.67;;;4.50;;
9496;SDS011;4786;51.270;4.456;2023-04-04T18:36:39;7.10;;;4.70;;
9496;SDS011;4786;51.270;4.456;2023-04-04T18:39:05;6.00;;;4.80;;
9496;SDS011;4786;51.270;4.456;2023-04-04T18:41:31;6.37;;;4.57;;
9496;SDS011;4786;51.270;4.456;2023-04-04T18:43:57;7.00;;;5.10;;
9496;SDS011;4786;51.270;4.456;2023-04-04T18:46:23;8.37;;;4.90;;
9496;SDS011;4786;51.270;4.456;2023-04-04T18:48:49;7.30;;;4.63;;
9496;SDS011;4786;51.270;4.456;2023-04-04T18:51:15;5.97;;;4.47;;
9496;SDS011;4786;51.270;4.456;2023-04-04T18:53:41;9.70;;;4.37;;
9496;SDS011;4786;51.270;4.456;2023-04-04T18:56:07;8.50;;;4.87;;
9496;SDS011;4786;51.270;4.456;2023-04-04T18:58:35;10.40;;;4.90;;
9496;SDS011;4786;51.270;4.456;2023-04-04T19:01:02;8.40;;;4.77;;
9496;SDS011;4786;51.270;4.456;2023-04-04T19:03:29;11.13;;;4.70;;
9496;SDS011;4786;51.270;4.456;2023-04-04T19:06:03;6.30;;;4.77;;
9496;SDS011;4786;51.270;4.456;2023-04-04T19:08:31;5.53;;;4.47;;
9496;SDS011;4786;51.270;4.456;2023-04-04T19:10:59;7.20;;;5.27;;
9496;SDS011;4786;51.270;4.456;2023-04-04T19:13:25;6.17;;;4.97;;
9496;SDS011;4786;51.270;4.456;2023-04-04T19:15:51;8.00;;;5.13;;
9496;SDS011;4786;51.270;4.456;2023-04-04T19:18:17;7.50;;;5.20;;
9496;SDS011;4786;51.270;4.456;2023-04-04T19:20:42;5.90;;;4.93;;
9496;SDS011;4786;51.270;4.456;2023-04-04T19:23:08;8.23;;;4.77;;
9496;SDS011;4786;51.270;4.456;2023-04-04T19:25:35;7.33;;;4.37;;
9496;SDS011;4786;51.270;4.456;2023-04-04T19:28:01;6.20;;;5.13;;
9496;SDS011;4786;51.270;4.456;2023-04-04T19:33:12;6.67;;;5.10;;
9496;SDS011;4786;51.270;4.456;2023-04-04T19:38:20;6.13;;;5.47;;
9496;SDS011;4786;51.270;4.456;2023-04-04T19:40:55;6.90;;;4.83;;
9496;SDS011;4786;51.270;4.456;2023-04-04T19:43:21;7.53;;;5.13;;
9496;SDS011;4786;51.270;4.456;2023-04-04T19:45:48;10.97;;;5.43;;
9496;SDS011;4786;51.270;4.456;2023-04-04T19:51:36;6.83;;;6.00;;
9496;SDS011;4786;51.270;4.456;2023-04-04T19:53:53;8.90;;;6.03;;
9496;SDS011;4786;51.270;4.456;2023-04-04T19:56:21;7.17;;;6.33;;
9496;SDS011;4786;51.270;4.456;2023-04-04T19:58:56;8.73;;;6.00;;
9496;SDS011;4786;51.270;4.456;2023-04-04T20:01:29;8.07;;;5.40;;
9496;SDS011;4786;51.270;4.456;2023-04-04T20:04:08;8.07;;;6.30;;
9496;SDS011;4786;51.270;4.456;2023-04-04T20:06:35;6.90;;;5.50;;
9496;SDS011;4786;51.270;4.456;2023-04-04T20:09:22;9.27;;;5.90;;
9496;SDS011;4786;51.270;4.456;2023-04-04T20:12:01;9.23;;;5.07;;
9496;SDS011;4786;51.270;4.456;2023-04-04T20:14:27;8.13;;;6.17;;
9496;SDS011;4786;51.270;4.456;2023-04-04T20:16:53;9.30;;;5.67;;
9496;SDS011;4786;51.270;4.456;2023-04-04T20:19:19;9.77;;;5.47;;
9496;SDS011;4786;51.270;4.456;2023-04-04T20:21:48;6.23;;;5.30;;
9496;SDS011;4786;51.270;4.456;2023-04-04T20:24:15;12.37;;;6.07;;
9496;SDS011;4786;51.270;4.456;2023-04-04T20:29:29;11.03;;;7.00;;
9496;SDS011;4786;51.270;4.456;2023-04-04T20:32:01;9.67;;;5.90;;
9496;SDS011;4786;51.270;4.456;2023-04-04T20:37:10;9.10;;;5.77;;
9496;SDS011;4786;51.270;4.456;2023-04-04T20:53:03;17.90;;;10.20;;
9496;SDS011;4786;51.270;4.456;2023-04-04T20:55:30;18.40;;;8.13;;
9496;SDS011;4786;51.270;4.456;2023-04-04T20:58:00;15.27;;;8.23;;
9496;SDS011;4786;51.270;4.456;2023-04-04T21:00:43;13.23;;;7.67;;
9496;SDS011;4786;51.270;4.456;2023-04-04T21:03:20;16.80;;;8.53;;
9496;SDS011;4786;51.270;4.456;2023-04-04T21:05:50;14.10;;;9.00;;
9496;SDS011;4786;51.270;4.456;2023-04-04T21:11:00;14.07;;;9.33;;
9496;SDS011;4786;51.270;4.456;2023-04-04T21:13:27;16.97;;;10.17;;
9496;SDS011;4786;51.270;4.456;2023-04-04T21:16:11;14.33;;;8.63;;
9496;SDS011;4786;51.270;4.456;2023-04-04T21:18:39;25.00;;;9.83;;
9496;SDS011;4786;51.270;4.456;2023-04-04T21:23:39;24.87;;;11.63;;
9496;SDS011;4786;51.270;4.456;2023-04-04T21:26:16;20.70;;;11.53;;
9496;SDS011;4786;51.270;4.456;2023-04-04T21:29:04;25.30;;;12.57;;
9496;SDS011;4786;51.270;4.456;2023-04-04T21:31:43;17.50;;;10.37;;
9496;SDS011;4786;51.270;4.456;2023-04-04T21:34:11;23.47;;;12.10;;
9496;SDS011;4786;51.270;4.456;2023-04-04T21:36:43;13.33;;;9.13;;
9496;SDS011;4786;51.270;4.456;2023-04-04T21:39:10;14.17;;;9.27;;
9496;SDS011;4786;51.270;4.456;2023-04-04T21:41:48;13.30;;;9.00;;
9496;SDS011;4786;51.270;4.456;2023-04-04T21:44:20;20.37;;;10.00;;
9496;SDS011;4786;51.270;4.456;2023-04-04T21:46:47;15.97;;;10.27;;
9496;SDS011;4786;51.270;4.456;2023-04-04T21:49:14;17.80;;;10.37;;
9496;SDS011;4786;51.270;4.456;2023-04-04T21:51:40;22.80;;;13.77;;
9496;SDS011;4786;51.270;4.456;2023-04-04T21:54:06;17.50;;;11.77;;
9496;SDS011;4786;51.270;4.456;2023-04-04T21:56:33;17.10;;;10.63;;
9496;SDS011;4786;51.270;4.456;2023-04-04T21:59:00;13.83;;;7.97;;
9496;SDS011;4786;51.270;4.456;2023-04-04T22:01:28;9.70;;;7.37;;
9496;SDS011;4786;51.270;4.456;2023-04-04T22:03:57;13.60;;;8.10;;
9496;SDS011;4786;51.270;4.456;2023-04-04T22:06:23;16.20;;;6.93;;
9496;SDS011;4786;51.270;4.456;2023-04-04T22:08:56;10.40;;;6.40;;
9496;SDS011;4786;51.270;4.456;2023-04-04T22:11:23;10.03;;;7.80;;
9496;SDS011;4786;51.270;4.456;2023-04-04T22:13:51;9.27;;;7.13;;
9496;SDS011;4786;51.270;4.456;2023-04-04T22:16:17;11.20;;;7.40;;
9496;SDS011;4786;51.270;4.456;2023-04-04T22:18:45;9.20;;;7.00;;
9496;SDS011;4786;51.270;4.456;2023-04-04T22:21:15;11.20;;;7.60;;
9496;SDS011;4786;51.270;4.456;2023-04-04T22:23:43;12.77;;;8.60;;
9496;SDS011;4786;51.270;4.456;2023-04-04T22:26:10;12.20;;;9.27;;
9496;SDS011;4786;51.270;4.456;2023-04-04T22:28:57;13.17;;;8.47;;
9496;SDS011;4786;51.270;4.456;2023-04-04T22:31:24;13.33;;;9.70;;
9496;SDS011;4786;51.270;4.456;2023-04-04T22:33:50;11.47;;;9.10;;
9496;SDS011;4786;51.270;4.456;2023-04-04T22:36:16;13.03;;;8.53;;
9496;SDS011;4786;51.270;4.456;2023-04-04T22:38:43;10.77;;;8.17;;
9496;SDS011;4786;51.270;4.456;2023-04-04T22:41:09;10.47;;;7.93;;
9496;SDS011;4786;51.270;4.456;2023-04-04T22:43:35;11.27;;;8.23;;
9496;SDS011;4786;51.270;4.456;2023-04-04T22:46:01;12.30;;;7.37;;
9496;SDS011;4786;51.270;4.456;2023-04-04T22:48:26;12.93;;;8.23;;
9496;SDS011;4786;51.270;4.456;2023-04-04T22:50:54;11.77;;;7.97;;
9496;SDS011;4786;51.270;4.456;2023-04-04T22:53:22;14.80;;;8.10;;
9496;SDS011;4786;51.270;4.456;2023-04-04T22:55:52;12.63;;;9.00;;
9496;SDS011;4786;51.270;4.456;2023-04-04T22:58:22;12.00;;;9.40;;
9496;SDS011;4786;51.270;4.456;2023-04-04T23:00:48;13.13;;;9.93;;
9496;SDS011;4786;51.270;4.456;2023-04-04T23:03:14;12.40;;;9.67;;
9496;SDS011;4786;51.270;4.456;2023-04-04T23:05:40;12.40;;;9.83;;
9496;SDS011;4786;51.270;4.456;2023-04-04T23:08:06;12.40;;;9.80;;
9496;SDS011;4786;51.270;4.456;2023-04-04T23:10:33;14.27;;;9.80;;
9496;SDS011;4786;51.270;4.456;2023-04-04T23:12:58;10.30;;;9.20;;
9496;SDS011;4786;51.270;4.456;2023-04-04T23:15:25;11.70;;;9.10;;
9496;SDS011;4786;51.270;4.456;2023-04-04T23:17:51;9.27;;;8.37;;
9496;SDS011;4786;51.270;4.456;2023-04-04T23:20:18;10.77;;;9.03;;
9496;SDS011;4786;51.270;4.456;2023-04-04T23:22:44;14.87;;;9.23;;
9496;SDS011;4786;51.270;4.456;2023-04-04T23:25:10;10.70;;;8.47;;
9496;SDS011;4786;51.270;4.456;2023-04-04T23:27:36;11.20;;;9.07;;
9496;SDS011;4786;51.270;4.456;2023-04-04T23:30:02;11.23;;;9.00;;
9496;SDS011;4786;51.270;4.456;2023-04-04T23:32:29;12.30;;;9.13;;
9496;SDS011;4786;51.270;4.456;2023-04-04T23:34:56;9.83;;;8.83;;
9496;SDS011;4786;51.270;4.456;2023-04-04T23:37:22;12.07;;;9.27;;
9496;SDS011;4786;51.270;4.456;2023-04-04T23:39:48;12.17;;;9.90;;
9496;SDS011;4786;51.270;4.456;2023-04-04T23:42:14;13.37;;;10.23;;
9496;SDS011;4786;51.270;4.456;2023-04-04T23:44:40;13.43;;;9.60;;
9496;SDS011;4786;51.270;4.456;2023-04-04T23:47:06;12.57;;;9.97;;
9496;SDS011;4786;51.270;4.456;2023-04-04T23:49:32;10.37;;;9.30;;
9496;SDS011;4786;51.270;4.456;2023-04-04T23:51:58;10.70;;;9.60;;
9496;SDS011;4786;51.270;4.456;2023-04-04T23:54:24;13.07;;;9.50;;
9496;SDS011;4786;51.270;4.456;2023-04-04T23:56:50;12.50;;;9.93;;
9496;SDS011;4786;51.270;4.456;2023-04-04T23:59:16;10.83;;;9.43;;
